createdAt,value
2022-12-08T00:01:35.138Z,100022.91
2022-12-08T00:04:04.433Z,100018.28
2022-12-08T00:07:02.344Z,99977.31
2022-12-08T00:09:40.064Z,100037.63
2022-12-08T00:12:10.326Z,100038.41
2022-12-08T00:14:43.213Z,100028.66
2022-12-08T00:17:13.352Z,99971.53
2022-12-08T00:19:42.388Z,100026.94
2022-12-08T00:22:11.895Z,100025.91
2022-12-08T00:24:41.093Z,100027.53
2022-12-08T00:27:10.368Z,100024.25
2022-12-08T00:29:38.399Z,100014.38
2022-12-08T00:32:07.031Z,100005.50
2022-12-08T00:34:34.884Z,100020.84
2022-12-08T00:37:02.645Z,99963.88
2022-12-08T00:39:30.363Z,100007.53
2022-12-08T00:42:13.277Z,99989.19
2022-12-08T00:44:44.027Z,100003.88
2022-12-08T00:47:13.220Z,100004.91
2022-12-08T00:49:41.566Z,100014.38
2022-12-08T00:52:09.583Z,100010.56
2022-12-08T00:54:37.341Z,100003.09
2022-12-08T00:57:07.886Z,99925.28
2022-12-08T00:59:35.728Z,99972.19
2022-12-08T01:02:03.399Z,99974.28
2022-12-08T01:04:31.140Z,99959.78
2022-12-08T01:06:58.822Z,99985.28
2022-12-08T01:09:26.531Z,99975.47
2022-12-08T01:11:54.185Z,99991.63
2022-12-08T01:14:21.831Z,99982.53
2022-12-08T01:16:49.687Z,99989.72
2022-12-08T01:19:18.136Z,99915.84
2022-12-08T01:21:46.653Z,99985.66
2022-12-08T01:24:17.792Z,99986.19
2022-12-08T01:26:48.037Z,99925.50
2022-12-08T01:29:16.498Z,99960.47
2022-12-08T01:31:44.228Z,99984.34
2022-12-08T01:34:12.918Z,99966.81
2022-12-08T01:36:41.158Z,99931.44
2022-12-08T01:39:15.728Z,99986.28
2022-12-08T01:41:45.490Z,99968.44
2022-12-08T01:44:14.125Z,99978.41
2022-12-08T01:46:43.988Z,99973.28
2022-12-08T01:49:14.081Z,99970.25
2022-12-08T01:51:55.268Z,99908.78
2022-12-08T01:54:26.001Z,99918.75
2022-12-08T01:57:12.581Z,99934.88
2022-12-08T01:59:47.111Z,99959.78
2022-12-08T02:02:14.732Z,99955.03
2022-12-08T02:04:42.518Z,99942.94
2022-12-08T02:07:12.656Z,99971.16
2022-12-08T02:09:41.794Z,99977.69
2022-12-08T02:12:11.738Z,99964.84
2022-12-08T02:14:41.645Z,99913.75
2022-12-08T02:17:30.607Z,99964.53
2022-12-08T02:20:20.050Z,99965.63
2022-12-08T02:23:15.767Z,99960.50
2022-12-08T02:26:09.827Z,99960.50
2022-12-08T02:28:59.138Z,99966.44
2022-12-08T02:31:36.162Z,99969.97
2022-12-08T02:34:09.793Z,99952.81
2022-12-08T02:36:43.560Z,99972.50
2022-12-08T02:39:29.313Z,99961.38
2022-12-08T02:42:08.706Z,99926.53
2022-12-08T02:44:36.506Z,99970.25
2022-12-08T02:47:13.480Z,99840.97
2022-12-08T02:49:41.737Z,99944.78
2022-12-08T02:52:12.609Z,99955.94
2022-12-08T02:54:51.907Z,99952.13
2022-12-08T02:57:34.578Z,99949.22
2022-12-08T03:00:03.269Z,99954.34
2022-12-08T03:02:44.064Z,99951.00
2022-12-08T03:05:51.931Z,99905.59
2022-12-08T03:08:55.058Z,99860.16
2022-12-08T03:11:33.366Z,99936.31
2022-12-08T03:14:03.762Z,99928.78
2022-12-08T03:16:37.212Z,99930.00
2022-12-08T03:19:22.513Z,99926.97
2022-12-08T03:22:03.014Z,99925.97
2022-12-08T03:24:38.146Z,99887.38
2022-12-08T03:27:12.503Z,99847.97
2022-12-08T03:29:41.823Z,99897.94
2022-12-08T03:32:20.121Z,99912.97
2022-12-08T03:34:50.193Z,99929.88
2022-12-08T03:37:18.189Z,99919.31
2022-12-08T03:39:47.303Z,99911.06
2022-12-08T03:42:15.075Z,99863.28
2022-12-08T03:44:43.151Z,99843.25
2022-12-08T03:47:10.776Z,99869.53
2022-12-08T03:49:38.699Z,99861.31
2022-12-08T03:52:06.447Z,99888.06
2022-12-08T03:54:34.426Z,99877.63
2022-12-08T03:57:02.162Z,99796.25
2022-12-08T03:59:29.737Z,99886.19
2022-12-08T04:01:57.370Z,99884.88
2022-12-08T04:04:25.110Z,99812.69
2022-12-08T04:06:52.931Z,99867.97
2022-12-08T04:09:20.598Z,99839.25
2022-12-08T04:11:48.525Z,99830.38
2022-12-08T04:14:16.130Z,99844.38
2022-12-08T04:16:43.753Z,99841.19
2022-12-08T04:19:11.404Z,99870.16
2022-12-08T04:21:39.522Z,99859.91
2022-12-08T04:24:07.392Z,99862.00
2022-12-08T04:26:35.105Z,99850.22
2022-12-08T04:29:02.866Z,99865.25
2022-12-08T04:31:30.848Z,99823.47
2022-12-08T04:33:58.945Z,99836.94
2022-12-08T04:36:26.828Z,99834.34
2022-12-08T04:38:54.529Z,99837.84
2022-12-08T04:41:22.241Z,99814.88
2022-12-08T04:43:51.834Z,99866.84
2022-12-08T04:46:19.528Z,99838.97
2022-12-08T04:48:47.498Z,99838.53
2022-12-08T04:51:17.528Z,99870.28
2022-12-08T04:53:46.891Z,99860.38
2022-12-08T04:56:16.430Z,99874.38
2022-12-08T04:58:44.622Z,99880.34
2022-12-08T05:01:13.400Z,99879.81
2022-12-08T05:03:41.456Z,99820.50
2022-12-08T05:06:12.668Z,99824.84
2022-12-08T05:08:41.307Z,99854.03
2022-12-08T05:11:10.790Z,99858.38
2022-12-08T05:13:38.577Z,99838.56
2022-12-08T05:16:14.821Z,99837.44
2022-12-08T05:18:43.730Z,99849.41
2022-12-08T05:21:12.838Z,99854.03
2022-12-08T05:23:40.506Z,99853.25
2022-12-08T05:26:08.496Z,99779.09
2022-12-08T05:28:44.047Z,99850.91
2022-12-08T05:31:14.545Z,99800.44
2022-12-08T05:33:43.214Z,99850.91
2022-12-08T05:36:14.022Z,99851.81
2022-12-08T05:38:42.562Z,99844.78
2022-12-08T05:41:17.014Z,99784.03
2022-12-08T05:43:46.573Z,99843.69
2022-12-08T05:46:14.810Z,99843.97
2022-12-08T05:48:42.503Z,99843.19
2022-12-08T05:51:21.912Z,99833.13
2022-12-08T05:53:52.299Z,99835.59
2022-12-08T05:56:21.447Z,99854.47
2022-12-08T05:58:49.853Z,99745.28
2022-12-08T06:01:27.790Z,99805.50
2022-12-08T06:03:57.554Z,99867.34
2022-12-08T06:06:25.646Z,99853.34
2022-12-08T06:08:53.639Z,99824.31
2022-12-08T06:11:26.067Z,99867.25
2022-12-08T06:13:54.854Z,99829.59
2022-12-08T06:16:23.335Z,99864.22
2022-12-08T06:18:51.152Z,99885.56
2022-12-08T06:21:20.078Z,99811.34
2022-12-08T06:23:49.831Z,99883.34
2022-12-08T06:26:18.402Z,99818.81
2022-12-08T06:28:46.492Z,99819.22
2022-12-08T06:31:23.982Z,99856.69
2022-12-08T06:33:53.350Z,99757.53
2022-12-08T06:36:23.803Z,99869.38
2022-12-08T06:38:51.698Z,99873.91
2022-12-08T06:41:22.460Z,99826.28
2022-12-08T06:43:50.452Z,99835.94
2022-12-08T06:46:20.022Z,99874.00
2022-12-08T06:48:48.996Z,99850.56
2022-12-08T06:51:24.255Z,99830.22
2022-12-08T06:53:52.120Z,99807.06
2022-12-08T06:56:20.618Z,99813.22
2022-12-08T06:58:52.569Z,99813.63
2022-12-08T07:01:20.943Z,99819.03
2022-12-08T07:03:50.331Z,99825.47
2022-12-08T07:06:24.022Z,99803.03
2022-12-08T07:08:51.756Z,99814.59
2022-12-08T07:11:21.871Z,99838.44
2022-12-08T07:13:51.295Z,99854.84
2022-12-08T07:16:19.103Z,99793.47
2022-12-08T07:18:46.879Z,99818.81
2022-12-08T07:21:15.262Z,99825.97
2022-12-08T07:23:46.209Z,99844.59
2022-12-08T07:26:14.090Z,99843.56
2022-12-08T07:28:42.950Z,99778.06
2022-12-08T07:31:38.505Z,99846.41
2022-12-08T07:34:06.261Z,99777.38
2022-12-08T07:36:34.144Z,99801.53
2022-12-08T07:39:01.711Z,99834.53
2022-12-08T07:41:29.820Z,99846.09
2022-12-08T07:43:57.694Z,99848.22
2022-12-08T07:46:26.849Z,99859.41
2022-12-08T07:48:55.561Z,99858.28
2022-12-08T07:51:24.994Z,99831.72
2022-12-08T07:53:54.847Z,99858.28
2022-12-08T07:56:23.715Z,99814.69
2022-12-08T07:58:51.748Z,99844.59
2022-12-08T08:01:30.984Z,99861.91
2022-12-08T08:04:04.872Z,99783.91
2022-12-08T08:06:34.996Z,99850.63
2022-12-08T08:09:02.840Z,99855.50
2022-12-08T08:11:35.121Z,99843.09
2022-12-08T08:14:03.589Z,99858.09
2022-12-08T08:16:36.659Z,99851.97
2022-12-08T08:19:06.230Z,99857.69
2022-12-08T08:21:45.596Z,99866.97
2022-12-08T08:24:14.846Z,99857.38
2022-12-08T08:26:42.946Z,99838.56
2022-12-08T08:29:10.667Z,99804.94
2022-12-08T08:31:38.541Z,99839.97
2022-12-08T08:34:06.727Z,99810.97
2022-12-08T08:36:40.122Z,99815.19
2022-12-08T08:39:07.862Z,99841.81
2022-12-08T08:41:35.616Z,99824.84
2022-12-08T08:44:03.636Z,99840.06
2022-12-08T08:46:32.422Z,99831.09
2022-12-08T08:49:01.250Z,99771.72
2022-12-08T08:51:28.913Z,99806.53
2022-12-08T08:53:57.317Z,99767.41
2022-12-08T08:56:25.501Z,99826.88
2022-12-08T08:58:53.832Z,99767.78
2022-12-08T09:01:25.262Z,99781.56
2022-12-08T09:03:58.611Z,99811.84
2022-12-08T09:06:28.417Z,99804.41
2022-12-08T09:08:56.824Z,99767.66
2022-12-08T09:11:24.540Z,99806.31
2022-12-08T09:13:53.843Z,99826.44
2022-12-08T09:16:23.064Z,99811.28
2022-12-08T09:18:50.903Z,99800.41
2022-12-08T09:21:24.633Z,99834.69
2022-12-08T09:23:58.455Z,99821.19
2022-12-08T09:26:28.006Z,99787.97
2022-12-08T09:28:56.684Z,99820.38
2022-12-08T09:31:25.635Z,99832.94
2022-12-08T09:33:54.197Z,99829.13
2022-12-08T09:36:22.272Z,99792.63
2022-12-08T09:38:51.232Z,99799.19
2022-12-08T09:41:48.493Z,99836.19
2022-12-08T09:44:36.037Z,99776.13
2022-12-08T09:47:12.122Z,99824.69
2022-12-08T09:49:45.894Z,99815.03
2022-12-08T09:52:24.551Z,99773.69
2022-12-08T09:54:52.483Z,99804.03
2022-12-08T09:57:25.067Z,99814.66
2022-12-08T10:00:01.941Z,99778.28
2022-12-08T10:02:32.880Z,99788.81
2022-12-08T10:05:00.820Z,99815.69
2022-12-08T10:07:49.976Z,99815.69
2022-12-08T10:10:42.671Z,99763.38
2022-12-08T10:13:29.711Z,99768.81
2022-12-08T10:16:29.529Z,99812.25
2022-12-08T10:19:18.893Z,99792.22
2022-12-08T10:21:48.296Z,99750.88
2022-12-08T10:24:23.702Z,99801.06
2022-12-08T10:26:55.024Z,99783.56
2022-12-08T10:29:22.725Z,99799.94
2022-12-08T10:31:50.311Z,99740.34
2022-12-08T10:34:20.159Z,99801.19
2022-12-08T10:36:56.392Z,99783.25
2022-12-08T10:39:44.078Z,99791.91
2022-12-08T10:42:14.729Z,99775.59
2022-12-08T10:44:58.316Z,99778.81
2022-12-08T10:47:29.001Z,99729.13
2022-12-08T10:50:20.655Z,99778.81
2022-12-08T10:52:58.898Z,99763.72
2022-12-08T10:55:28.930Z,99765.31
2022-12-08T10:57:56.807Z,99776.56
2022-12-08T11:00:27.589Z,99735.75
2022-12-08T11:03:05.208Z,99769.53
2022-12-08T11:05:35.963Z,99752.34
2022-12-08T11:08:06.209Z,99759.44
2022-12-08T11:10:45.211Z,99765.69
2022-12-08T11:13:26.575Z,99761.84
2022-12-08T11:15:57.134Z,99756.59
2022-12-08T11:18:38.933Z,99738.31
2022-12-08T11:21:12.438Z,99745.41
2022-12-08T11:23:42.396Z,99743.16
2022-12-08T11:26:28.085Z,99743.16
2022-12-08T11:28:57.121Z,99720.81
2022-12-08T11:31:34.857Z,99728.69
2022-12-08T11:34:03.595Z,99659.69
2022-12-08T11:36:35.647Z,99721.97
2022-12-08T11:39:05.876Z,99723.09
2022-12-08T11:41:42.114Z,99687.91
2022-12-08T11:44:16.324Z,99719.41
2022-12-08T11:47:09.026Z,99675.78
2022-12-08T11:49:40.397Z,99706.81
2022-12-08T11:52:19.353Z,99689.50
2022-12-08T11:55:16.245Z,99685.69
2022-12-08T11:57:45.693Z,99655.50
2022-12-08T12:00:16.942Z,99646.53
2022-12-08T12:02:49.044Z,99683.78
2022-12-08T12:06:08.692Z,99669.19
2022-12-08T12:08:47.659Z,99663.06
2022-12-08T12:12:03.328Z,99626.81
2022-12-08T12:14:43.426Z,99555.00
2022-12-08T12:17:38.390Z,99647.69
2022-12-08T12:20:16.179Z,99587.63
2022-12-08T12:22:48.684Z,99640.94
2022-12-08T12:25:23.811Z,99571.88
2022-12-08T12:27:57.660Z,99616.69
2022-12-08T12:30:28.137Z,99623.28
2022-12-08T12:32:59.150Z,99601.59
2022-12-08T12:35:36.503Z,99611.59
2022-12-08T12:38:30.876Z,99617.41
2022-12-08T12:41:02.690Z,99614.19
2022-12-08T12:43:36.312Z,99610.16
2022-12-08T12:46:37.081Z,99610.81
2022-12-08T12:49:38.814Z,99614.81
2022-12-08T12:52:15.534Z,99594.34
2022-12-08T12:54:45.055Z,99592.41
2022-12-08T12:57:12.940Z,99586.97
2022-12-08T12:59:47.841Z,99582.34
2022-12-08T13:02:18.373Z,99579.94
2022-12-08T13:05:08.678Z,99573.69
2022-12-08T13:07:45.416Z,99562.81
2022-12-08T13:10:32.330Z,99562.00
2022-12-08T13:13:03.295Z,99558.31
2022-12-08T13:15:40.665Z,99532.31
2022-12-08T13:18:17.736Z,99562.63
2022-12-08T13:21:11.482Z,99488.81
2022-12-08T13:23:39.039Z,99542.47
2022-12-08T13:26:14.565Z,99547.13
2022-12-08T13:29:04.103Z,99540.25
2022-12-08T13:31:50.049Z,99440.94
2022-12-08T13:34:42.208Z,99535.13
2022-12-08T13:37:15.664Z,99538.31
2022-12-08T13:39:53.762Z,99498.44
2022-12-08T13:42:36.062Z,99518.81
2022-12-08T13:45:25.528Z,99511.47
2022-12-08T13:48:33.186Z,99515.16
2022-12-08T13:59:37.174Z,99497.03
2022-12-08T14:02:34.668Z,99507.28
2022-12-08T14:05:30.093Z,99450.38
2022-12-08T14:07:56.610Z,99495.78
2022-12-08T14:10:32.185Z,99509.59
2022-12-08T14:13:04.283Z,99468.91
2022-12-08T14:15:38.380Z,99484.81
2022-12-08T14:18:22.953Z,99442.63
2022-12-08T14:21:20.658Z,99446.50
2022-12-08T14:23:48.893Z,99450.34
2022-12-08T14:26:16.408Z,99443.31
2022-12-08T14:28:45.292Z,99393.97
2022-12-08T14:31:14.840Z,99413.00
2022-12-08T14:33:43.284Z,99406.28
2022-12-08T14:36:12.434Z,99403.88
2022-12-08T14:38:40.264Z,99454.34
2022-12-08T14:41:10.157Z,99453.56
2022-12-08T14:43:37.939Z,99438.66
2022-12-08T14:46:23.260Z,99440.28
2022-12-08T14:48:51.345Z,99432.75
2022-12-08T14:51:20.795Z,99434.03
2022-12-08T14:54:01.282Z,99426.50
2022-12-08T14:56:38.648Z,99434.19
2022-12-08T14:59:32.645Z,99429.06
2022-12-08T15:02:27.220Z,99424.72
2022-12-08T15:05:00.620Z,99388.34
2022-12-08T15:07:46.947Z,99412.56
2022-12-08T15:10:17.680Z,99422.00
2022-12-08T15:13:21.068Z,99435.28
2022-12-08T15:15:57.405Z,99371.53
2022-12-08T15:18:37.744Z,99434.50
2022-12-08T15:21:09.197Z,99422.78
2022-12-08T15:23:44.932Z,99402.47
2022-12-08T15:26:24.778Z,99330.97
2022-12-08T15:28:54.169Z,99418.81
2022-12-08T15:31:22.119Z,99409.34
2022-12-08T15:33:49.804Z,99359.84
2022-12-08T15:36:17.453Z,99373.00
2022-12-08T15:38:45.320Z,99388.53
2022-12-08T15:41:15.161Z,99362.91
2022-12-08T15:43:43.061Z,99383.88
2022-12-08T15:46:11.976Z,99361.78
2022-12-08T15:48:39.698Z,99305.22
2022-12-08T15:51:07.759Z,99360.19
2022-12-08T15:53:35.648Z,99332.31
2022-12-08T15:58:56.590Z,99382.44
2022-12-08T16:01:25.968Z,99381.50
2022-12-08T16:09:38.723Z,99333.22
2022-12-08T16:13:06.935Z,99307.59
2022-12-08T16:15:53.016Z,99380.50
2022-12-08T16:18:17.607Z,99360.50
2022-12-08T16:23:42.856Z,99302.03
2022-12-08T16:26:28.387Z,99285.06
2022-12-08T16:29:05.515Z,99326.75
2022-12-08T16:31:34.128Z,99351.56
2022-12-08T16:34:01.900Z,99341.47
2022-12-08T16:36:29.701Z,99327.22
2022-12-08T16:38:57.678Z,99315.50
2022-12-08T16:41:43.914Z,99340.69
2022-12-08T16:44:11.645Z,99334.13
2022-12-08T16:46:39.612Z,99332.19
2022-12-08T16:49:09.521Z,99333.47
2022-12-08T16:51:37.139Z,99335.06
2022-12-08T16:54:05.149Z,99316.19
2022-12-08T16:56:33.765Z,99309.16
2022-12-08T16:59:02.463Z,99323.06
2022-12-08T17:01:30.673Z,99288.81
2022-12-08T17:04:29.790Z,99273.13
2022-12-08T17:06:46.569Z,99327.25
2022-12-08T17:09:14.325Z,99309.47
2022-12-08T17:11:43.752Z,99305.94
2022-12-08T17:14:13.022Z,99290.28
2022-12-08T17:16:41.477Z,99261.81
2022-12-08T17:19:09.688Z,99205.28
2022-12-08T17:21:37.404Z,99241.31
2022-12-08T17:24:05.728Z,99281.97
2022-12-08T17:26:33.473Z,99256.38
2022-12-08T17:29:02.543Z,99277.00
2022-12-08T17:31:32.378Z,99300.50
2022-12-08T17:34:05.898Z,99279.25
2022-12-08T17:36:33.897Z,99264.34
2022-12-08T17:39:02.496Z,99253.16
2022-12-08T17:41:30.877Z,99267.06
2022-12-08T17:43:58.527Z,99295.06
2022-12-08T17:46:26.422Z,99231.69
2022-12-08T17:48:54.509Z,99296.66
2022-12-08T17:51:22.447Z,99285.63
2022-12-08T17:53:50.113Z,99304.53
2022-12-08T17:56:20.538Z,99299.09
2022-12-08T17:58:52.925Z,99305.31
2022-12-08T18:01:23.608Z,99276.81
2022-12-08T18:03:52.052Z,99315.56
2022-12-08T18:06:20.157Z,99304.03
2022-12-08T18:08:47.956Z,99263.06
2022-12-08T18:11:19.101Z,99282.91
2022-12-08T18:13:50.449Z,99309.16
2022-12-08T18:16:21.154Z,99289.94
2022-12-08T18:18:50.269Z,99334.47
2022-12-08T18:21:23.358Z,99264.44
2022-12-08T18:23:51.833Z,99272.50
2022-12-08T18:26:20.172Z,99272.03
2022-12-08T18:28:48.719Z,99295.25
2022-12-08T18:31:19.556Z,99299.56
2022-12-08T18:33:48.414Z,99267.25
2022-12-08T18:36:21.119Z,99298.91
2022-12-08T18:38:49.766Z,99239.84
2022-12-08T18:41:30.834Z,99277.31
2022-12-08T18:43:58.628Z,99250.28
2022-12-08T18:46:26.566Z,99279.53
2022-12-08T18:48:54.388Z,99266.75
2022-12-08T18:51:24.400Z,99273.00
2022-12-08T18:53:52.705Z,99265.16
2022-12-08T18:56:27.049Z,99252.66
2022-12-08T18:59:03.155Z,99269.63
2022-12-08T19:01:33.509Z,99271.72
2022-12-08T19:06:52.121Z,99227.88
2022-12-08T19:09:20.010Z,99264.03
2022-12-08T19:11:48.211Z,99257.94
2022-12-08T19:14:15.860Z,99242.28
2022-12-08T19:16:43.481Z,99235.88
2022-12-08T19:19:11.230Z,99215.56
2022-12-08T19:21:44.603Z,99247.72
2022-12-08T19:24:13.989Z,99205.94
2022-12-08T19:26:42.244Z,99231.69
2022-12-08T19:29:10.063Z,99217.78
2022-12-08T19:31:38.044Z,99205.91
2022-12-08T19:34:06.866Z,99213.75
2022-12-08T19:36:37.906Z,99218.25
2022-12-08T19:39:25.263Z,99203.06
2022-12-08T19:42:11.512Z,99163.72
2022-12-08T19:44:54.360Z,99186.22
2022-12-08T19:47:27.996Z,99148.19
2022-12-08T19:50:16.227Z,99150.09
2022-12-08T19:52:45.011Z,99204.16
2022-12-08T19:55:13.731Z,99165.00
2022-12-08T19:57:41.529Z,99216.81
2022-12-08T20:00:11.209Z,99145.03
2022-12-08T20:02:39.213Z,99187.69
2022-12-08T20:05:08.186Z,99200.66
2022-12-08T20:07:37.170Z,99187.06
2022-12-08T20:10:07.959Z,99129.50
2022-12-08T20:12:35.848Z,99206.25
2022-12-08T20:15:04.009Z,99206.09
2022-12-08T20:17:31.939Z,99201.25
2022-12-08T20:20:03.867Z,99166.75
2022-12-08T20:22:34.529Z,99175.38
2022-12-08T20:25:02.949Z,99201.16
2022-12-08T20:27:30.643Z,99181.16
2022-12-08T20:29:58.394Z,99209.00
2022-12-08T20:32:26.108Z,99182.75
2022-12-08T20:34:54.230Z,99184.34
2022-12-08T20:37:21.773Z,99207.69
2022-12-08T20:39:49.628Z,99213.75
2022-12-08T20:42:19.377Z,99166.28
2022-12-08T20:44:47.052Z,99208.50
2022-12-08T20:47:15.059Z,99186.91
2022-12-08T20:49:42.855Z,99171.25
2022-12-08T20:52:10.790Z,99213.94
2022-12-08T20:54:38.878Z,99187.06
2022-12-08T20:57:06.973Z,99186.25
2022-12-08T20:59:34.611Z,99186.75
2022-12-08T21:02:02.664Z,99124.19
2022-12-08T21:04:30.682Z,99150.00
2022-12-08T21:06:59.011Z,99173.16
2022-12-08T21:09:26.922Z,99149.31
2022-12-08T21:11:55.222Z,99192.34
2022-12-08T21:14:23.028Z,99180.81
2022-12-08T21:16:51.139Z,99193.47
2022-12-08T21:19:20.584Z,99194.59
2022-12-08T21:21:50.816Z,99195.41
2022-12-08T21:24:19.376Z,99188.03
2022-12-08T21:26:47.171Z,99202.44
2022-12-08T21:29:14.916Z,99185.94
2022-12-08T21:31:43.354Z,99111.09
2022-12-08T21:34:11.498Z,99164.50
2022-12-08T21:36:39.436Z,99116.53
2022-12-08T21:39:13.175Z,99177.78
2022-12-08T21:41:59.613Z,99186.59
2022-12-08T21:44:27.508Z,99190.28
2022-12-08T21:46:55.367Z,99149.31
2022-12-08T21:49:24.411Z,99168.22
2022-12-08T21:51:52.233Z,99141.63
2022-12-08T21:54:20.060Z,99161.66
2022-12-08T21:56:49.381Z,99140.19
2022-12-08T21:59:18.263Z,99190.75
2022-12-08T22:01:46.239Z,99145.16
2022-12-08T22:04:18.268Z,99152.84
2022-12-08T22:06:46.303Z,99196.22
2022-12-08T22:09:15.471Z,99155.69
2022-12-08T22:11:44.480Z,99190.59
2022-12-08T22:14:15.004Z,99134.63
2022-12-08T22:16:43.974Z,99152.38
2022-12-08T22:19:12.671Z,99163.72
2022-12-08T22:21:40.819Z,99112.88
2022-12-08T22:24:09.046Z,99091.47
2022-12-08T22:26:37.207Z,99159.41
2022-12-08T22:29:04.929Z,99155.88
2022-12-08T22:31:32.850Z,99110.47
2022-12-08T22:34:00.823Z,99162.00
2022-12-08T22:36:28.502Z,99170.16
2022-12-08T22:38:57.138Z,99110.44
2022-12-08T22:41:24.936Z,99181.16
2022-12-08T22:43:52.662Z,99160.19
2022-12-08T22:46:25.674Z,99191.22
2022-12-08T22:48:54.570Z,99144.03
2022-12-08T22:51:22.450Z,99158.59
2022-12-08T22:53:50.824Z,99157.47
2022-12-08T22:56:20.696Z,99176.97
2022-12-08T22:58:48.630Z,99094.66
2022-12-08T23:01:32.775Z,99109.69
2022-12-08T23:04:01.565Z,99172.53
2022-12-08T23:06:30.501Z,99166.44
2022-12-08T23:08:59.441Z,99165.97
2022-12-08T23:11:30.306Z,99125.00
2022-12-08T23:14:02.697Z,99152.53
2022-12-08T23:16:30.773Z,99123.41
2022-12-08T23:18:59.161Z,99128.06
2022-12-08T23:21:27.061Z,99093.97
2022-12-08T23:23:54.768Z,99066.66
2022-12-08T23:26:28.128Z,99074.81
2022-12-08T23:28:56.926Z,99058.03
2022-12-08T23:31:25.885Z,99071.44
2022-12-08T23:33:54.708Z,99014.56
2022-12-08T23:36:26.456Z,99042.84
2022-12-08T23:38:56.051Z,98986.44
2022-12-08T23:41:24.048Z,99011.03
2022-12-08T23:43:52.845Z,99024.09
2022-12-08T23:46:22.590Z,99013.50
2022-12-08T23:48:51.779Z,98998.19
2022-12-08T23:51:20.062Z,98961.72
2022-12-08T23:53:48.247Z,98981.72
2022-12-08T23:56:17.928Z,98989.03
2022-12-08T23:58:46.503Z,98993.69
